Time;durP1;ratioP1;P1;durP2;ratioP2;P2;SDS_P1;SDS_P2;PMS_P1;PMS_P2;Temp;Humidity;BMP_temperature;BMP_pressure;BME280_temperature;BME280_humidity;BME280_pressure;Samples;Min_cycle;Max_cycle;Signal;HPM_P1;HPM_P2
2022/06/21 00:01:15;;;;;;;28.50;5.57;;;12.10;89.10;;;;;;5084213;28;20238;-85
2022/06/21 00:03:42;;;;;;;21.33;5.40;;;12.10;89.40;;;;;;5082059;28;20163;-84
2022/06/21 00:06:09;;;;;;;21.27;5.17;;;12.20;89.60;;;;;;5082310;28;20199;-85
2022/06/21 00:08:36;;;;;;;23.40;6.30;;;12.20;89.70;;;;;;5081710;28;20262;-85
2022/06/21 00:11:03;;;;;;;20.27;5.30;;;12.20;89.70;;;;;;5080617;28;20230;-85
2022/06/21 00:13:33;;;;;;;22.53;5.60;;;12.20;89.80;;;;;;5081674;28;20179;-85
2022/06/21 00:16:03;;;;;;;26.40;6.13;;;12.20;90.00;;;;;;5080258;28;20258;-85
2022/06/21 00:18:31;;;;;;;24.27;6.00;;;12.20;90.10;;;;;;5081341;28;20167;-85
2022/06/21 00:20:56;;;;;;;25.80;8.03;;;12.10;90.30;;;;;;5081029;28;20207;-85
2022/06/21 00:23:26;;;;;;;24.63;5.90;;;12.20;90.40;;;;;;5082108;28;20220;-85
2022/06/21 00:25:52;;;;;;;28.20;7.23;;;12.20;90.30;;;;;;5082712;28;20242;-85
2022/06/21 00:28:19;;;;;;;27.20;6.40;;;12.20;90.20;;;;;;5080987;28;20233;-87
2022/06/21 00:30:46;;;;;;;25.57;6.73;;;12.10;90.20;;;;;;5081214;28;20195;-86
2022/06/21 00:33:14;;;;;;;32.70;6.37;;;12.00;90.20;;;;;;5081977;28;20552;-84
2022/06/21 00:35:45;;;;;;;31.23;7.23;;;12.00;90.40;;;;;;5083016;28;20176;-85
2022/06/21 00:38:16;;;;;;;21.07;6.20;;;12.10;90.50;;;;;;5080924;28;20186;-85
2022/06/21 00:40:42;;;;;;;30.60;6.60;;;12.10;90.80;;;;;;5083122;28;20677;-84
2022/06/21 00:43:22;;;;;;;26.43;6.43;;;12.00;90.70;;;;;;5083035;28;20175;-85
2022/06/21 00:45:49;;;;;;;29.83;7.87;;;12.10;90.70;;;;;;5082451;28;20156;-85
2022/06/21 00:48:22;;;;;;;32.27;6.60;;;12.10;90.50;;;;;;5083940;28;20175;-84
2022/06/21 00:51:08;;;;;;;23.90;6.13;;;12.00;90.50;;;;;;5080706;28;20195;-87
2022/06/21 00:53:37;;;;;;;24.07;7.17;;;12.10;90.50;;;;;;5079880;28;20182;-86
2022/06/21 00:56:10;;;;;;;25.20;6.80;;;12.20;90.60;;;;;;5080198;28;20623;-86
2022/06/21 00:58:35;;;;;;;23.63;6.93;;;12.20;90.60;;;;;;5081314;28;20160;-87
2022/06/21 01:01:23;;;;;;;27.70;6.77;;;12.10;90.60;;;;;;5080940;28;20211;-87
2022/06/21 01:03:59;;;;;;;23.03;6.77;;;12.10;90.50;;;;;;5081568;28;20174;-86
2022/06/21 01:06:34;;;;;;;25.87;6.57;;;12.10;90.60;;;;;;5081735;28;20164;-87
2022/06/21 01:09:05;;;;;;;25.73;7.60;;;12.10;90.60;;;;;;5081382;28;20170;-87
2022/06/21 01:11:37;;;;;;;30.77;7.00;;;12.10;90.70;;;;;;5080120;28;20191;-87
2022/06/21 01:14:03;;;;;;;38.13;9.63;;;12.00;90.70;;;;;;5081420;28;20163;-87
2022/06/21 01:16:32;;;;;;;20.30;6.57;;;12.00;90.60;;;;;;5080512;28;20240;-87
2022/06/21 01:19:00;;;;;;;24.47;6.77;;;12.00;90.50;;;;;;5080955;28;20633;-85
2022/06/21 01:21:28;;;;;;;27.40;6.73;;;12.00;90.40;;;;;;5080410;28;20744;-86
2022/06/21 01:24:03;;;;;;;27.47;5.97;;;12.00;90.50;;;;;;5081183;28;20174;-87
2022/06/21 01:26:55;;;;;;;29.50;5.63;;;12.00;90.40;;;;;;5080796;28;20651;-87
2022/06/21 01:29:25;;;;;;;30.83;6.37;;;12.00;90.40;;;;;;5080076;28;20167;-87
2022/06/21 01:31:53;;;;;;;26.87;7.03;;;12.00;90.60;;;;;;5080549;28;20167;-87
2022/06/21 01:34:22;;;;;;;21.90;6.07;;;12.00;90.50;;;;;;5080879;28;20629;-87
2022/06/21 01:36:54;;;;;;;31.03;6.93;;;12.00;90.50;;;;;;5081238;28;20179;-87
2022/06/21 01:39:30;;;;;;;31.53;6.40;;;11.90;90.40;;;;;;5081081;28;20263;-87
2022/06/21 01:42:12;;;;;;;30.87;6.07;;;11.90;90.50;;;;;;5080542;28;20670;-87
2022/06/21 01:44:42;;;;;;;23.50;6.00;;;11.90;90.30;;;;;;5081460;28;20164;-87
2022/06/21 01:47:13;;;;;;;24.10;7.10;;;11.90;90.50;;;;;;5080951;28;20207;-87
2022/06/21 01:49:46;;;;;;;24.23;7.40;;;11.90;90.40;;;;;;5079368;28;20198;-87
2022/06/21 01:52:18;;;;;;;24.63;5.90;;;11.90;90.30;;;;;;5080850;28;20187;-87
2022/06/21 01:54:49;;;;;;;27.43;6.00;;;11.80;90.30;;;;;;5079757;28;20171;-87
2022/06/21 01:57:14;;;;;;;24.10;5.77;;;11.90;90.20;;;;;;5080120;28;20267;-88
2022/06/21 01:59:45;;;;;;;25.20;5.13;;;11.80;90.20;;;;;;5080450;28;20222;-87
2022/06/21 02:02:16;;;;;;;18.30;5.47;;;11.80;90.20;;;;;;5079267;28;20167;-87
2022/06/21 02:04:54;;;;;;;26.23;5.47;;;11.70;90.10;;;;;;5080275;28;20549;-87
2022/06/21 02:07:24;;;;;;;17.30;4.80;;;11.70;90.20;;;;;;5080199;28;20206;-87
2022/06/21 02:10:03;;;;;;;19.10;4.87;;;11.70;90.20;;;;;;5081581;28;20285;-87
2022/06/21 02:12:31;;;;;;;22.00;4.90;;;11.60;90.00;;;;;;5081421;28;20160;-87
2022/06/21 02:15:00;;;;;;;21.37;5.63;;;11.60;89.90;;;;;;5079372;28;20190;-87
2022/06/21 02:17:38;;;;;;;25.67;6.00;;;11.50;90.00;;;;;;5079738;28;20243;-88
2022/06/21 02:20:26;;;;;;;29.07;6.10;;;11.50;90.10;;;;;;5080612;28;20689;-87
2022/06/21 02:22:52;;;;;;;21.27;5.50;;;11.50;90.10;;;;;;5080436;28;20156;-87
2022/06/21 02:25:20;;;;;;;21.53;4.80;;;11.50;90.00;;;;;;5080415;28;20196;-87
2022/06/21 02:27:46;;;;;;;17.70;4.87;;;11.50;89.80;;;;;;5080547;28;20534;-87
2022/06/21 02:30:25;;;;;;;18.93;4.73;;;11.50;89.90;;;;;;5080751;28;20237;-88
2022/06/21 02:32:53;;;;;;;23.07;5.10;;;11.40;89.90;;;;;;5080706;28;20178;-87
2022/06/21 02:35:42;;;;;;;19.73;5.50;;;11.50;90.10;;;;;;5079314;28;20187;-87
2022/06/21 02:38:19;;;;;;;19.80;4.90;;;11.40;90.00;;;;;;5080171;28;20285;-87
2022/06/21 02:40:51;;;;;;;16.43;4.93;;;11.50;90.30;;;;;;5084894;28;20278;-87
2022/06/21 02:43:25;;;;;;;25.93;5.13;;;11.50;90.30;;;;;;5083829;28;20167;-87
2022/06/21 02:46:03;;;;;;;20.27;4.97;;;11.50;90.40;;;;;;5083467;28;20159;-87
2022/06/21 02:48:34;;;;;;;19.60;5.33;;;11.40;90.60;;;;;;5084378;28;20223;-87
2022/06/21 02:51:07;;;;;;;22.83;5.33;;;11.40;90.60;;;;;;5082817;28;20211;-88
2022/06/21 02:53:42;;;;;;;19.57;4.97;;;11.40;90.60;;;;;;5083481;28;20190;-87
2022/06/21 02:56:28;;;;;;;28.93;5.73;;;11.40;90.50;;;;;;5083639;28;20200;-89
2022/06/21 02:58:57;;;;;;;24.63;6.40;;;11.30;90.40;;;;;;5083591;28;20159;-88
2022/06/21 03:01:41;;;;;;;26.77;5.20;;;11.30;90.40;;;;;;5084721;28;20203;-87
2022/06/21 03:04:12;;;;;;;22.37;5.73;;;11.30;90.40;;;;;;5083786;28;20159;-87
2022/06/21 03:06:39;;;;;;;21.30;4.97;;;11.30;90.50;;;;;;5084352;28;20162;-85
2022/06/21 03:09:09;;;;;;;23.53;5.27;;;11.30;90.50;;;;;;5083148;28;20177;-87
2022/06/21 03:11:40;;;;;;;18.00;4.27;;;11.30;90.50;;;;;;5083746;28;20226;-88
2022/06/21 03:14:36;;;;;;;14.00;4.23;;;11.30;90.40;;;;;;5082980;28;20156;-87
2022/06/21 03:17:04;;;;;;;28.57;5.50;;;11.30;90.50;;;;;;5082597;28;20198;-87
2022/06/21 03:19:40;;;;;;;20.27;4.73;;;11.40;90.60;;;;;;5082647;28;20198;-87
2022/06/21 03:22:32;;;;;;;18.43;4.47;;;11.50;90.50;;;;;;5083358;28;20166;-87
2022/06/21 03:25:00;;;;;;;29.17;4.53;;;11.50;90.40;;;;;;5077462;28;20666;-87
2022/06/21 03:27:48;;;;;;;15.43;4.53;;;11.50;90.40;;;;;;5082960;28;20174;-87
2022/06/21 03:30:16;;;;;;;27.57;5.40;;;11.60;90.40;;;;;;5082896;28;20203;-87
2022/06/21 03:32:43;;;;;;;19.13;4.93;;;11.50;90.30;;;;;;5079360;28;20179;-87
2022/06/21 03:35:10;;;;;;;21.93;4.70;;;11.50;90.30;;;;;;5076871;28;20265;-88
2022/06/21 03:37:40;;;;;;;21.77;5.00;;;11.50;90.30;;;;;;5076674;28;20175;-87
2022/06/21 03:42:54;;;;;;;14.90;4.33;;;11.60;90.20;;;;;;5076952;28;20186;-86
2022/06/21 03:45:29;;;;;;;14.57;4.07;;;11.60;90.00;;;;;;5076769;28;20167;-87
2022/06/21 03:48:01;;;;;;;21.93;4.63;;;11.70;89.90;;;;;;5076328;28;20214;-87
2022/06/21 03:50:32;;;;;;;18.70;5.40;;;11.80;89.80;;;;;;5076256;28;20195;-87
2022/06/21 03:53:25;;;;;;;21.67;5.30;;;11.80;89.70;;;;;;5076578;28;20151;-87
2022/06/21 03:56:09;;;;;;;25.17;5.53;;;11.90;89.50;;;;;;5076452;28;20281;-86
2022/06/21 03:58:41;;;;;;;19.00;4.73;;;11.80;89.60;;;;;;5076687;28;20175;-86
2022/06/21 04:01:27;;;;;;;23.93;4.47;;;11.80;89.60;;;;;;5076028;28;20689;-86
2022/06/21 04:04:16;;;;;;;18.93;4.47;;;11.90;89.60;;;;;;5076192;28;20155;-87
2022/06/21 04:07:05;;;;;;;20.33;4.67;;;12.00;89.50;;;;;;5076161;28;20524;-87
2022/06/21 04:09:46;;;;;;;19.87;4.27;;;12.20;89.20;;;;;;5075938;28;20194;-87
2022/06/21 04:12:25;;;;;;;20.70;4.37;;;12.40;88.90;;;;;;5076328;28;20626;-87
2022/06/21 04:15:09;;;;;;;25.20;4.30;;;12.40;88.50;;;;;;5075981;28;20155;-86
2022/06/21 04:17:40;;;;;;;15.83;3.30;;;12.50;88.20;;;;;;5076025;28;20606;-87
2022/06/21 04:20:26;;;;;;;24.33;4.63;;;12.50;87.90;;;;;;5075854;28;20754;-86
2022/06/21 04:23:10;;;;;;;20.13;4.43;;;12.40;88.20;;;;;;5076053;28;20160;-87
2022/06/21 04:25:51;;;;;;;15.37;4.10;;;12.50;87.90;;;;;;5075708;28;20159;-86
2022/06/21 04:28:35;;;;;;;13.73;3.73;;;12.50;88.00;;;;;;5075673;28;20170;-86
2022/06/21 04:31:25;;;;;;;14.93;4.40;;;12.50;87.90;;;;;;5075520;28;20211;-86
2022/06/21 04:34:03;;;;;;;21.00;4.63;;;12.50;88.00;;;;;;5075753;28;20228;-86
2022/06/21 04:36:36;;;;;;;19.70;4.00;;;12.40;88.30;;;;;;5075344;28;20209;-86
2022/06/21 04:39:27;;;;;;;13.87;3.83;;;12.50;88.50;;;;;;5075390;28;20186;-86
2022/06/21 04:42:06;;;;;;;23.10;5.00;;;12.50;88.60;;;;;;5075055;28;20187;-86
2022/06/21 04:44:48;;;;;;;20.30;4.73;;;12.60;88.70;;;;;;5075232;28;20687;-86
2022/06/21 04:47:23;;;;;;;15.10;4.37;;;12.60;88.70;;;;;;5075530;28;20167;-86
2022/06/21 04:50:13;;;;;;;19.17;4.33;;;12.70;88.80;;;;;;5075135;28;20195;-86
2022/06/21 04:52:44;;;;;;;21.30;5.00;;;12.60;88.70;;;;;;5075494;28;20187;-87
2022/06/21 04:55:15;;;;;;;10.63;3.63;;;12.70;88.80;;;;;;5075465;28;20164;-86
2022/06/21 04:57:41;;;;;;;19.13;4.70;;;12.70;88.80;;;;;;5075051;28;20264;-86
2022/06/21 05:00:14;;;;;;;18.43;4.33;;;12.80;88.80;;;;;;5074784;28;20219;-86
2022/06/21 05:02:44;;;;;;;22.23;4.90;;;12.70;88.90;;;;;;5073144;28;20168;-86
2022/06/21 05:05:20;;;;;;;24.00;4.60;;;12.80;88.80;;;;;;5074884;28;20702;-86
2022/06/21 05:08:00;;;;;;;18.93;4.60;;;12.80;88.80;;;;;;5075178;28;20193;-86
2022/06/21 05:10:30;;;;;;;22.70;4.20;;;12.90;88.90;;;;;;5073406;28;20202;-86
2022/06/21 05:12:58;;;;;;;16.40;4.50;;;12.90;89.00;;;;;;5074578;28;20670;-87
2022/06/21 05:15:28;;;;;;;23.97;5.00;;;13.00;89.00;;;;;;5074419;28;20175;-86
2022/06/21 05:18:00;;;;;;;14.83;4.10;;;13.10;89.10;;;;;;5074669;28;20260;-86
2022/06/21 05:20:30;;;;;;;26.50;5.27;;;13.20;88.90;;;;;;5074132;28;20206;-86
2022/06/21 05:22:58;;;;;;;16.83;5.07;;;13.30;89.00;;;;;;5074244;28;20634;-86
2022/06/21 05:25:27;;;;;;;13.53;3.87;;;13.40;88.90;;;;;;5074234;28;20644;-86
2022/06/21 05:28:27;;;;;;;17.50;3.97;;;13.50;88.90;;;;;;5073077;28;20179;-86
2022/06/21 05:30:57;;;;;;;16.43;4.17;;;13.60;88.50;;;;;;5074253;28;20256;-86
2022/06/21 05:33:46;;;;;;;24.93;4.10;;;13.70;88.40;;;;;;5074461;28;20605;-86
2022/06/21 05:36:17;;;;;;;21.00;4.23;;;13.80;88.10;;;;;;5074264;28;20167;-86
2022/06/21 05:38:59;;;;;;;20.47;3.67;;;13.90;88.00;;;;;;5073965;28;20217;-87
2022/06/21 05:41:35;;;;;;;14.93;3.50;;;14.20;88.30;;;;;;5072469;28;20207;-86
2022/06/21 05:44:08;;;;;;;17.17;3.50;;;14.30;87.90;;;;;;5073793;28;20159;-87
2022/06/21 05:46:37;;;;;;;15.83;3.57;;;14.50;87.60;;;;;;5073891;28;20166;-87
2022/06/21 05:49:08;;;;;;;13.60;3.17;;;14.60;86.90;;;;;;5072484;28;20186;-87
2022/06/21 05:51:34;;;;;;;15.47;3.97;;;14.60;86.30;;;;;;5073684;28;20194;-86
2022/06/21 05:54:12;;;;;;;15.47;3.47;;;14.60;86.20;;;;;;5073686;28;20712;-86
2022/06/21 05:56:39;;;;;;;20.20;4.27;;;14.70;86.10;;;;;;5073486;28;20195;-86
2022/06/21 05:59:11;;;;;;;18.23;3.70;;;14.70;85.90;;;;;;5073467;28;20194;-86
2022/06/21 06:01:51;;;;;;;11.13;2.87;;;14.60;85.60;;;;;;5073602;28;20227;-86
2022/06/21 06:04:16;;;;;;;15.13;3.10;;;14.50;85.60;;;;;;5073507;28;20194;-86
2022/06/21 06:06:44;;;;;;;20.30;3.40;;;14.50;85.70;;;;;;5073371;28;20203;-86
2022/06/21 06:09:27;;;;;;;16.70;3.90;;;14.70;86.10;;;;;;5073474;28;20175;-86
2022/06/21 06:12:01;;;;;;;13.77;3.47;;;14.80;85.90;;;;;;5073448;28;20167;-86
2022/06/21 06:14:43;;;;;;;14.33;3.50;;;14.70;85.60;;;;;;5072498;28;20280;-86
2022/06/21 06:17:50;;;;;;;16.87;3.63;;;14.80;85.70;;;;;;5073467;28;20633;-86
2022/06/21 06:20:38;;;;;;;14.57;3.50;;;14.70;85.40;;;;;;5071333;28;20556;-86
2022/06/21 06:23:30;;;;;;;20.53;5.80;;;14.80;85.60;;;;;;5071159;28;20195;-86
2022/06/21 06:26:12;;;;;;;16.83;3.67;;;14.90;85.60;;;;;;5074027;28;20254;-86
2022/06/21 06:28:46;;;;;;;13.70;3.17;;;15.10;85.50;;;;;;5073811;28;20152;-86
2022/06/21 06:31:20;;;;;;;17.87;4.10;;;14.90;84.40;;;;;;5073478;28;20191;-86
2022/06/21 06:33:52;;;;;;;13.90;3.40;;;14.90;84.70;;;;;;5073390;28;20163;-87
2022/06/21 06:36:20;;;;;;;18.70;3.70;;;14.90;84.30;;;;;;5073768;28;20509;-87
2022/06/21 06:38:46;;;;;;;13.80;3.17;;;14.90;84.30;;;;;;5073506;28;20222;-86
2022/06/21 06:41:32;;;;;;;20.50;3.33;;;15.00;84.20;;;;;;5073751;28;20566;-87
2022/06/21 06:44:09;;;;;;;13.97;3.77;;;15.10;83.40;;;;;;5073731;28;20201;-87
2022/06/21 06:46:39;;;;;;;18.13;4.17;;;15.30;84.00;;;;;;5073573;28;20163;-87
2022/06/21 06:49:37;;;;;;;9.53;2.83;;;15.30;82.80;;;;;;5073811;28;20151;-87
2022/06/21 06:52:44;;;;;;;12.50;3.13;;;15.30;82.30;;;;;;5073237;28;20686;-86
2022/06/21 06:55:33;;;;;;;11.40;2.90;;;15.30;82.10;;;;;;5072438;28;20191;-87
2022/06/21 06:58:10;;;;;;;12.80;3.97;;;15.50;81.60;;;;;;5073704;28;20184;-87
2022/06/21 07:00:44;;;;;;;15.87;3.53;;;15.30;81.50;;;;;;5073081;28;20238;-87
2022/06/21 07:03:14;;;;;;;10.57;3.87;;;15.30;81.60;;;;;;5073611;28;20191;-87
2022/06/21 07:06:02;;;;;;;16.63;3.20;;;15.60;81.20;;;;;;5073332;28;20195;-87
2022/06/21 07:09:01;;;;;;;13.60;3.27;;;15.50;81.00;;;;;;5071862;28;20167;-86
2022/06/21 07:11:39;;;;;;;12.50;3.23;;;15.60;80.80;;;;;;5071904;28;20634;-86
2022/06/21 07:14:12;;;;;;;11.02;2.80;;;15.80;80.40;;;;;;5073307;28;20175;-86
2022/06/21 07:16:39;;;;;;;10.23;2.70;;;15.90;80.10;;;;;;5073668;28;20160;-87
2022/06/21 07:19:05;;;;;;;14.20;2.97;;;16.10;79.20;;;;;;5073127;28;20213;-87
2022/06/21 07:21:31;;;;;;;6.55;2.50;;;16.20;78.70;;;;;;5072767;28;20203;-87
2022/06/21 07:23:59;;;;;;;12.02;2.70;;;16.30;78.00;;;;;;5072940;28;20186;-87
2022/06/21 07:26:41;;;;;;;13.20;2.55;;;16.40;77.80;;;;;;5076126;28;20164;-88
2022/06/21 07:29:19;;;;;;;6.72;2.45;;;16.40;77.50;;;;;;5076976;28;20156;-89
2022/06/21 07:31:58;;;;;;;12.82;3.08;;;16.60;77.60;;;;;;5076418;28;20197;-86
2022/06/21 07:34:42;;;;;;;10.25;2.28;;;16.70;76.10;;;;;;5076410;28;20205;-86
2022/06/21 07:37:15;;;;;;;9.20;2.45;;;16.70;75.90;;;;;;5076730;28;20182;-86
2022/06/21 07:39:49;;;;;;;12.10;2.80;;;16.80;74.20;;;;;;5076072;28;20207;-87
2022/06/21 07:42:28;;;;;;;11.93;2.70;;;16.70;76.70;;;;;;5076798;28;20159;-87
2022/06/21 07:45:00;;;;;;;13.45;3.13;;;16.80;76.80;;;;;;5076333;28;20152;-87
2022/06/21 07:47:37;;;;;;;12.95;3.30;;;16.40;76.80;;;;;;5076262;28;20172;-87
2022/06/21 07:50:21;;;;;;;17.13;3.35;;;16.60;77.90;;;;;;5076249;28;20189;-86
2022/06/21 07:52:59;;;;;;;9.75;2.70;;;16.90;76.30;;;;;;5076229;28;20170;-86
2022/06/21 07:55:43;;;;;;;10.30;2.92;;;17.20;76.10;;;;;;5076080;28;20186;-86
2022/06/21 07:58:16;;;;;;;12.43;2.55;;;17.20;74.70;;;;;;5074808;28;20203;-86
2022/06/21 08:06:42;;;;;;;8.48;2.65;;;17.70;73.60;;;;;;5076108;28;20154;-89
2022/06/21 08:09:31;;;;;;;13.43;3.00;;;17.70;74.10;;;;;;5075916;28;20672;-86
2022/06/21 08:12:01;;;;;;;11.05;2.28;;;17.60;73.70;;;;;;5076126;28;20159;-88
2022/06/21 08:14:32;;;;;;;8.18;2.30;;;17.80;72.30;;;;;;5076092;28;20183;-88
2022/06/21 08:17:03;;;;;;;5.00;2.60;;;17.90;72.70;;;;;;5074637;28;20270;-89
2022/06/21 08:19:58;;;;;;;6.93;2.20;;;17.90;71.40;;;;;;5075599;28;20163;-87
2022/06/21 08:22:36;;;;;;;8.70;2.45;;;17.80;73.50;;;;;;5076151;28;20201;-88
2022/06/21 08:25:27;;;;;;;13.43;2.65;;;17.70;72.40;;;;;;5076238;28;20213;-87
2022/06/21 08:28:01;;;;;;;12.65;2.60;;;17.90;72.60;;;;;;5075794;28;20171;-88
2022/06/21 08:30:32;;;;;;;8.95;2.33;;;18.20;71.70;;;;;;5076230;28;20213;-89
2022/06/21 08:33:07;;;;;;;11.32;2.83;;;18.50;71.60;;;;;;5075838;28;20152;-89
2022/06/21 08:35:47;;;;;;;6.70;2.78;;;18.40;71.30;;;;;;5075744;28;20602;-89
2022/06/21 08:38:26;;;;;;;8.68;3.03;;;18.70;71.50;;;;;;5075104;28;20159;-87
2022/06/21 08:41:51;;;;;;;12.20;3.08;;;18.20;70.90;;;;;;5075268;28;20246;-89
2022/06/21 08:44:31;;;;;;;11.98;2.70;;;18.30;71.00;;;;;;5075247;28;20702;-87
2022/06/21 08:47:34;;;;;;;10.60;2.97;;;17.80;71.90;;;;;;5075729;28;20164;-88
2022/06/21 08:50:21;;;;;;;10.18;2.80;;;18.80;71.30;;;;;;5074108;28;20297;-87
2022/06/21 08:53:08;;;;;;;10.68;2.67;;;18.70;70.70;;;;;;5075406;28;20186;-89
2022/06/21 08:56:02;;;;;;;16.10;2.80;;;18.90;68.40;;;;;;5075243;28;20171;-88
2022/06/21 08:58:54;;;;;;;8.25;2.33;;;18.60;71.10;;;;;;5074916;28;20623;-88
2022/06/21 09:01:29;;;;;;;8.20;2.13;;;19.10;69.10;;;;;;5074343;28;20310;-88
2022/06/21 09:04:13;;;;;;;7.13;2.05;;;19.10;65.80;;;;;;5075338;28;20234;-89
2022/06/21 09:07:05;;;;;;;9.38;2.10;;;19.20;66.20;;;;;;5074708;28;20172;-85
2022/06/21 09:09:48;;;;;;;9.73;2.50;;;19.70;67.80;;;;;;5074509;28;20655;-87
2022/06/21 09:12:19;;;;;;;6.63;2.80;;;19.50;67.60;;;;;;5074512;28;20159;-85
2022/06/21 09:15:11;;;;;;;13.05;2.97;;;19.20;68.30;;;;;;5074567;28;20625;-85
2022/06/21 09:18:01;;;;;;;11.00;2.53;;;19.50;66.50;;;;;;5074545;28;20194;-85
2022/06/21 09:20:51;;;;;;;5.38;2.00;;;19.90;66.10;;;;;;5074382;28;20396;-85
2022/06/21 09:23:26;;;;;;;7.28;2.42;;;19.70;65.50;;;;;;5073074;28;20187;-85
2022/06/21 09:26:05;;;;;;;6.40;2.05;;;19.40;65.40;;;;;;5074740;28;20234;-85
2022/06/21 09:28:54;;;;;;;8.30;2.78;;;19.50;65.50;;;;;;5074227;28;20185;-86
2022/06/21 09:31:56;;;;;;;9.23;2.42;;;19.20;65.80;;;;;;5074133;28;20673;-85
2022/06/21 09:34:25;;;;;;;9.05;2.38;;;19.40;66.10;;;;;;5077827;28;20175;-86
2022/06/21 09:37:03;;;;;;;11.65;2.22;;;20.10;64.50;;;;;;5075840;28;20186;-85
2022/06/21 09:39:36;;;;;;;8.32;2.67;;;20.10;64.30;;;;;;5076710;28;20166;-86
2022/06/21 09:42:16;;;;;;;8.82;2.38;;;19.80;64.40;;;;;;5077236;28;20168;-86
2022/06/21 09:45:05;;;;;;;7.90;2.78;;;20.00;66.30;;;;;;5077078;28;20160;-86
2022/06/21 09:47:43;;;;;;;5.07;2.28;;;20.40;64.60;;;;;;5077246;28;20621;-86
2022/06/21 09:50:24;;;;;;;6.90;2.35;;;20.50;63.70;;;;;;5077748;28;20661;-86
2022/06/21 09:53:00;;;;;;;8.00;2.45;;;20.20;63.20;;;;;;5076945;28;20160;-87
2022/06/21 09:55:48;;;;;;;4.90;1.90;;;20.90;64.20;;;;;;5077119;28;20162;-86
2022/06/21 09:58:25;;;;;;;6.30;2.47;;;21.00;60.40;;;;;;5078295;28;20519;-86
2022/06/21 10:00:57;;;;;;;10.10;2.40;;;20.70;63.50;;;;;;5079156;28;20206;-86
2022/06/21 10:03:41;;;;;;;7.13;2.28;;;21.20;60.90;;;;;;5079367;28;20171;-86
2022/06/21 10:06:22;;;;;;;8.55;2.70;;;21.20;61.80;;;;;;5080309;28;20225;-86
2022/06/21 10:09:09;;;;;;;7.68;2.25;;;20.60;63.90;;;;;;5079919;28;20160;-86
2022/06/21 10:12:00;;;;;;;6.40;2.33;;;20.90;61.50;;;;;;5079960;28;20187;-85
2022/06/21 10:14:51;;;;;;;9.15;2.58;;;21.10;61.80;;;;;;5078834;28;20179;-84
2022/06/21 10:17:53;;;;;;;6.30;2.00;;;21.60;60.40;;;;;;5078905;28;20215;-85
2022/06/21 10:20:34;;;;;;;5.78;2.20;;;21.70;59.70;;;;;;5079462;28;20707;-86
2022/06/21 10:23:35;;;;;;;6.65;2.05;;;21.80;60.20;;;;;;5077043;28;20164;-85
2022/06/21 10:26:13;;;;;;;9.20;2.15;;;22.10;58.90;;;;;;5077108;28;20151;-86
2022/06/21 10:28:57;;;;;;;8.27;2.40;;;22.30;58.70;;;;;;5076111;28;20185;-85
2022/06/21 10:31:39;;;;;;;9.25;2.42;;;22.40;57.40;;;;;;5074246;28;20240;-86
2022/06/21 10:34:44;;;;;;;8.05;1.98;;;22.30;57.80;;;;;;5075266;28;20155;-86
2022/06/21 10:37:34;;;;;;;7.30;2.45;;;22.20;58.70;;;;;;5073962;28;20170;-86
2022/06/21 10:40:20;;;;;;;6.60;1.95;;;22.20;58.50;;;;;;5072565;28;20212;-86
2022/06/21 10:43:16;;;;;;;7.00;2.67;;;21.90;58.60;;;;;;5073413;28;20241;-85
2022/06/21 10:45:55;;;;;;;2.90;1.58;;;22.10;57.60;;;;;;5073947;28;20164;-88
2022/06/21 10:48:36;;;;;;;6.93;2.38;;;22.50;56.60;;;;;;5073005;28;20166;-84
2022/06/21 10:51:20;;;;;;;6.18;2.70;;;22.20;57.20;;;;;;5072912;28;20271;-84
2022/06/21 10:54:33;;;;;;;6.68;2.30;;;22.30;57.40;;;;;;5073377;28;20156;-84
2022/06/21 10:57:25;;;;;;;5.82;2.40;;;21.60;62.20;;;;;;5071139;28;20206;-84
2022/06/21 11:03:36;;;;;;;7.97;2.20;;;22.90;56.60;;;;;;5095123;28;20700;-84
2022/06/21 11:06:17;;;;;;;7.22;2.30;;;23.20;55.00;;;;;;5077108;28;20236;-85
2022/06/21 11:08:58;;;;;;;11.18;2.33;;;23.30;55.30;;;;;;5076772;28;20197;-85
2022/06/21 11:11:39;;;;;;;6.72;1.98;;;23.30;56.40;;;;;;5076480;28;20199;-84
2022/06/21 11:14:43;;;;;;;7.50;2.00;;;23.30;53.90;;;;;;5076685;28;20271;-84
2022/06/21 11:17:22;;;;;;;7.97;1.95;;;23.70;53.70;;;;;;5076859;28;20494;-85
2022/06/21 11:19:58;;;;;;;5.85;1.90;;;23.20;53.90;;;;;;5076325;28;20689;-85
2022/06/21 11:22:27;;;;;;;7.82;2.00;;;23.20;54.70;;;;;;5076355;28;20530;-84
2022/06/21 11:25:15;;;;;;;6.70;1.83;;;23.20;55.50;;;;;;5076328;28;20164;-85
2022/06/21 11:27:54;;;;;;;10.10;2.47;;;23.20;54.80;;;;;;5076584;28;20152;-84
2022/06/21 11:30:45;;;;;;;7.90;2.85;;;23.10;55.10;;;;;;5076155;28;20220;-85
2022/06/21 11:33:54;;;;;;;6.68;2.30;;;23.20;54.30;;;;;;5076340;28;20186;-85
2022/06/21 11:36:50;;;;;;;4.88;2.17;;;23.40;52.90;;;;;;5076544;28;20175;-86
2022/06/21 11:39:55;;;;;;;6.70;2.17;;;23.00;54.80;;;;;;5076950;28;20210;-85
2022/06/21 11:42:26;;;;;;;7.03;2.10;;;22.80;56.30;;;;;;5075741;28;20648;-85
2022/06/21 11:45:16;;;;;;;7.40;2.30;;;23.50;55.10;;;;;;5077008;28;20179;-85
2022/06/21 11:48:21;;;;;;;6.05;1.83;;;23.70;54.30;;;;;;5076178;28;20519;-86
2022/06/21 11:51:09;;;;;;;9.77;2.42;;;23.60;55.60;;;;;;5074584;28;20242;-85
2022/06/21 11:54:16;;;;;;;4.70;1.88;;;23.80;53.40;;;;;;5076249;28;20163;-85
2022/06/21 11:57:00;;;;;;;8.15;2.47;;;23.70;54.40;;;;;;5075184;28;20281;-86
2022/06/21 11:59:38;;;;;;;5.93;2.20;;;23.40;55.10;;;;;;5075120;28;20171;-85
2022/06/21 12:02:26;;;;;;;7.50;2.83;;;24.10;52.60;;;;;;5076072;28;20297;-85
2022/06/21 12:05:29;;;;;;;8.63;2.28;;;24.00;54.20;;;;;;5075744;28;20305;-85
2022/06/21 12:08:10;;;;;;;6.40;1.85;;;23.90;53.30;;;;;;5075535;28;20584;-85
2022/06/21 12:11:02;;;;;;;7.53;2.10;;;23.70;55.10;;;;;;5075631;28;20245;-86
2022/06/21 12:13:45;;;;;;;5.75;2.13;;;23.70;51.80;;;;;;5074967;28;20159;-86
2022/06/21 12:16:31;;;;;;;8.50;2.45;;;24.00;52.80;;;;;;5075621;28;20191;-85
2022/06/21 12:19:05;;;;;;;9.32;2.28;;;24.40;51.20;;;;;;5075923;28;20164;-86
2022/06/21 12:21:36;;;;;;;7.65;2.75;;;24.50;52.00;;;;;;5075356;28;20700;-86
2022/06/21 12:24:06;;;;;;;7.05;2.50;;;24.30;52.10;;;;;;5075723;28;20244;-85
2022/06/21 12:26:34;;;;;;;6.00;2.05;;;24.50;53.40;;;;;;5074043;28;20171;-86
2022/06/21 12:29:03;;;;;;;4.47;1.92;;;24.60;52.70;;;;;;5075929;28;20163;-86
2022/06/21 12:31:39;;;;;;;8.00;2.35;;;24.80;51.40;;;;;;5074003;28;20313;-86
2022/06/21 12:34:06;;;;;;;8.82;2.50;;;24.30;53.30;;;;;;5075397;28;20209;-86
2022/06/21 12:36:46;;;;;;;11.45;2.53;;;24.50;54.10;;;;;;5075330;28;20171;-86
2022/06/21 12:39:22;;;;;;;3.78;2.03;;;25.00;51.50;;;;;;5075870;28;20587;-86
2022/06/21 12:42:19;;;;;;;5.93;2.15;;;25.20;50.10;;;;;;5075129;28;20175;-85
2022/06/21 12:44:44;;;;;;;7.15;3.20;;;24.60;50.80;;;;;;5074574;28;20193;-84
2022/06/21 12:47:26;;;;;;;6.13;2.42;;;25.00;50.30;;;;;;5075085;28;20192;-85
2022/06/21 12:50:29;;;;;;;7.75;2.22;;;24.40;49.90;;;;;;5075049;28;20191;-85
2022/06/21 12:53:36;;;;;;;7.72;2.17;;;24.30;50.90;;;;;;5075201;28;20200;-87
2022/06/21 12:56:47;;;;;;;7.05;2.53;;;24.20;51.80;;;;;;5074753;28;20156;-85
2022/06/21 12:59:23;;;;;;;5.05;2.28;;;24.20;52.00;;;;;;5075047;28;20182;-85
2022/06/21 13:02:10;;;;;;;6.32;2.55;;;24.20;53.80;;;;;;5073549;28;20174;-85
2022/06/21 13:04:51;;;;;;;6.07;2.40;;;24.50;52.20;;;;;;5075021;28;20187;-85
2022/06/21 13:07:44;;;;;;;5.93;1.92;;;24.70;51.60;;;;;;5074780;28;20152;-86
2022/06/21 13:10:25;;;;;;;7.15;2.42;;;24.80;53.70;;;;;;5074619;28;20199;-85
2022/06/21 13:13:03;;;;;;;4.68;2.03;;;24.40;52.40;;;;;;5073726;28;20503;-85
2022/06/21 13:15:44;;;;;;;5.85;1.92;;;24.40;51.70;;;;;;5074321;28;20216;-85
2022/06/21 13:18:38;;;;;;;6.00;2.20;;;24.20;51.90;;;;;;5074307;28;20187;-85
2022/06/21 13:21:33;;;;;;;9.52;4.20;;;23.60;53.60;;;;;;5074260;28;20206;-84
2022/06/21 13:24:22;;;;;;;4.90;2.25;;;23.70;54.70;;;;;;5074225;28;20170;-85
2022/06/21 13:27:08;;;;;;;3.75;2.08;;;24.20;53.20;;;;;;5073122;28;20191;-85
2022/06/21 13:29:48;;;;;;;9.48;2.65;;;24.00;50.90;;;;;;5075036;28;20185;-87
2022/06/21 13:32:27;;;;;;;6.10;2.15;;;23.90;54.80;;;;;;5074999;28;20155;-87
2022/06/21 13:35:03;;;;;;;6.32;2.40;;;24.60;52.70;;;;;;5074926;28;20202;-87
2022/06/21 13:37:38;;;;;;;6.88;2.10;;;24.50;51.30;;;;;;5074953;28;20183;-87
2022/06/21 13:40:26;;;;;;;6.22;2.38;;;24.20;52.60;;;;;;5074282;28;20710;-87
2022/06/21 13:42:57;;;;;;;9.65;2.38;;;24.60;49.60;;;;;;5074405;28;20143;-87
2022/06/21 13:45:44;;;;;;;7.97;2.65;;;24.20;51.50;;;;;;5075253;28;20194;-86
2022/06/21 13:48:16;;;;;;;12.13;3.10;;;23.60;54.00;;;;;;5075753;28;20625;-87
2022/06/21 13:51:08;;;;;;;5.57;2.60;;;24.00;54.40;;;;;;5074304;28;20632;-87
2022/06/21 13:53:46;;;;;;;5.97;2.40;;;24.40;51.40;;;;;;5073415;28;20569;-86